sensor_id;sensor_type;location;lat;lon;timestamp;pressure;altitude;pressure_sealevel;temperature;humidity
65832;BME280;52593;42.648;23.332;2023-07-28T00:02:21;94639.03;;;15.06;65.10
65832;BME280;52593;42.648;23.332;2023-07-28T00:04:47;94639.47;;;14.96;66.60
65832;BME280;52593;42.648;23.332;2023-07-28T00:07:12;94630.75;;;15.08;65.49
65832;BME280;52593;42.648;23.332;2023-07-28T00:09:38;94629.72;;;15.22;64.20
65832;BME280;52593;42.648;23.332;2023-07-28T00:12:03;94632.78;;;15.26;62.49
65832;BME280;52593;42.648;23.332;2023-07-28T00:14:29;94635.13;;;14.95;67.39
65832;BME280;52593;42.648;23.332;2023-07-28T00:16:56;94626.41;;;14.93;65.77
65832;BME280;52593;42.648;23.332;2023-07-28T00:19:22;94630.56;;;14.83;65.97
65832;BME280;52593;42.648;23.332;2023-07-28T00:21:48;94632.03;;;14.72;67.79
65832;BME280;52593;42.648;23.332;2023-07-28T00:24:13;94627.66;;;14.84;67.47
65832;BME280;52593;42.648;23.332;2023-07-28T00:26:39;94626.41;;;14.67;67.56
65832;BME280;52593;42.648;23.332;2023-07-28T00:29:04;94622.28;;;14.64;68.58
65832;BME280;52593;42.648;23.332;2023-07-28T00:31:32;94622.09;;;14.66;66.94
65832;BME280;52593;42.648;23.332;2023-07-28T00:33:57;94616.25;;;14.55;68.22
65832;BME280;52593;42.648;23.332;2023-07-28T00:36:23;94628.22;;;14.39;68.42
65832;BME280;52593;42.648;23.332;2023-07-28T00:38:48;94626.34;;;14.26;69.43
65832;BME280;52593;42.648;23.332;2023-07-28T00:41:13;94635.25;;;14.27;69.61
65832;BME280;52593;42.648;23.332;2023-07-28T00:43:39;94634.28;;;14.55;67.00
65832;BME280;52593;42.648;23.332;2023-07-28T00:46:04;94633.88;;;14.65;67.47
65832;BME280;52593;42.648;23.332;2023-07-28T00:48:30;94638.81;;;14.48;67.92
65832;BME280;52593;42.648;23.332;2023-07-28T00:50:55;94632.75;;;14.25;67.99
65832;BME280;52593;42.648;23.332;2023-07-28T00:53:23;94628.44;;;14.24;68.28
65832;BME280;52593;42.648;23.332;2023-07-28T00:55:48;94624.69;;;14.12;67.76
65832;BME280;52593;42.648;23.332;2023-07-28T00:58:14;94625.50;;;14.06;67.52
65832;BME280;52593;42.648;23.332;2023-07-28T01:00:39;94636.25;;;14.19;67.76
65832;BME280;52593;42.648;23.332;2023-07-28T01:03:05;94627.13;;;14.07;68.50
65832;BME280;52593;42.648;23.332;2023-07-28T01:05:39;94629.81;;;13.94;69.63
65832;BME280;52593;42.648;23.332;2023-07-28T01:10:41;94627.94;;;14.01;68.03
65832;BME280;52593;42.648;23.332;2023-07-28T01:13:07;94635.59;;;13.90;69.07
65832;BME280;52593;42.648;23.332;2023-07-28T01:15:32;94637.28;;;13.98;68.41
65832;BME280;52593;42.648;23.332;2023-07-28T01:17:58;94633.78;;;14.11;67.15
65832;BME280;52593;42.648;23.332;2023-07-28T01:20:25;94632.09;;;14.10;66.84
65832;BME280;52593;42.648;23.332;2023-07-28T01:25:36;94629.25;;;14.18;65.51
65832;BME280;52593;42.648;23.332;2023-07-28T01:28:05;94625.28;;;14.14;65.51
65832;BME280;52593;42.648;23.332;2023-07-28T01:30:31;94626.09;;;14.08;65.85
65832;BME280;52593;42.648;23.332;2023-07-28T01:32:57;94625.91;;;14.03;65.83
65832;BME280;52593;42.648;23.332;2023-07-28T01:35:24;94628.78;;;14.01;65.26
65832;BME280;52593;42.648;23.332;2023-07-28T01:37:49;94631.84;;;13.91;65.78
65832;BME280;52593;42.648;23.332;2023-07-28T01:40:18;94632.00;;;13.77;66.03
65832;BME280;52593;42.648;23.332;2023-07-28T01:42:44;94627.69;;;13.82;66.30
65832;BME280;52593;42.648;23.332;2023-07-28T01:45:09;94631.56;;;13.66;66.56
65832;BME280;52593;42.648;23.332;2023-07-28T01:47:35;94625.41;;;13.79;65.83
65832;BME280;52593;42.648;23.332;2023-07-28T01:50:00;94624.97;;;13.76;66.09
65832;BME280;52593;42.648;23.332;2023-07-28T01:52:25;94628.09;;;13.79;66.49
65832;BME280;52593;42.648;23.332;2023-07-28T01:54:51;94624.94;;;13.69;67.18
65832;BME280;52593;42.648;23.332;2023-07-28T01:57:17;94629.00;;;13.51;67.99
65832;BME280;52593;42.648;23.332;2023-07-28T01:59:42;94632.28;;;13.47;68.50
65832;BME280;52593;42.648;23.332;2023-07-28T02:02:07;94635.34;;;13.37;69.27
65832;BME280;52593;42.648;23.332;2023-07-28T02:04:33;94632.22;;;13.33;69.94
65832;BME280;52593;42.648;23.332;2023-07-28T02:06:58;94644.19;;;13.31;70.35
65832;BME280;52593;42.648;23.332;2023-07-28T02:09:23;94631.09;;;13.21;70.36
65832;BME280;52593;42.648;23.332;2023-07-28T02:11:49;94625.00;;;13.06;70.68
65832;BME280;52593;42.648;23.332;2023-07-28T02:14:14;94630.81;;;13.09;70.58
65832;BME280;52593;42.648;23.332;2023-07-28T02:16:39;94629.28;;;13.00;70.71
65832;BME280;52593;42.648;23.332;2023-07-28T02:19:05;94629.28;;;13.00;70.92
65832;BME280;52593;42.648;23.332;2023-07-28T02:21:30;94636.34;;;13.01;71.04
65832;BME280;52593;42.648;23.332;2023-07-28T02:23:56;94636.25;;;12.88;71.31
65832;BME280;52593;42.648;23.332;2023-07-28T02:26:21;94638.34;;;12.92;71.14
65832;BME280;52593;42.648;23.332;2023-07-28T02:28:47;94646.16;;;12.87;71.44
65832;BME280;52593;42.648;23.332;2023-07-28T02:31:12;94629.84;;;12.89;71.25
65832;BME280;52593;42.648;23.332;2023-07-28T02:33:37;94636.25;;;12.88;71.36
65832;BME280;52593;42.648;23.332;2023-07-28T02:36:04;94639.13;;;12.86;71.52
65832;BME280;52593;42.648;23.332;2023-07-28T02:38:30;94630.25;;;12.85;71.34
65832;BME280;52593;42.648;23.332;2023-07-28T02:40:55;94637.69;;;12.83;71.81
65832;BME280;52593;42.648;23.332;2023-07-28T02:43:20;94634.34;;;12.81;71.77
65832;BME280;52593;42.648;23.332;2023-07-28T02:46:04;94638.06;;;12.80;72.22
65832;BME280;52593;42.648;23.332;2023-07-28T02:48:29;94634.34;;;12.81;72.19
65832;BME280;52593;42.648;23.332;2023-07-28T02:50:55;94637.41;;;12.78;72.60
65832;BME280;52593;42.648;23.332;2023-07-28T02:53:20;94644.09;;;12.89;72.63
65832;BME280;52593;42.648;23.332;2023-07-28T02:55:47;94637.91;;;12.89;72.22
65832;BME280;52593;42.648;23.332;2023-07-28T02:58:14;94635.19;;;12.82;72.65
65832;BME280;52593;42.648;23.332;2023-07-28T03:00:40;94632.16;;;12.92;72.10
65832;BME280;52593;42.648;23.332;2023-07-28T03:03:07;94628.94;;;12.75;73.24
65832;BME280;52593;42.648;23.332;2023-07-28T03:05:32;94624.34;;;12.69;73.79
65832;BME280;52593;42.648;23.332;2023-07-28T03:07:58;94637.91;;;12.60;74.09
65832;BME280;52593;42.648;23.332;2023-07-28T03:10:24;94640.53;;;12.54;74.83
65832;BME280;52593;42.648;23.332;2023-07-28T03:12:49;94639.69;;;12.53;74.63
65832;BME280;52593;42.648;23.332;2023-07-28T03:15:14;94640.13;;;12.57;73.45
65832;BME280;52593;42.648;23.332;2023-07-28T03:17:40;94634.75;;;12.57;74.28
65832;BME280;52593;42.648;23.332;2023-07-28T03:20:06;94640.31;;;12.55;73.74
65832;BME280;52593;42.648;23.332;2023-07-28T03:22:31;94646.66;;;12.47;74.70
65832;BME280;52593;42.648;23.332;2023-07-28T03:24:57;94641.56;;;12.53;74.60
65832;BME280;52593;42.648;23.332;2023-07-28T03:27:22;94647.94;;;12.52;74.74
65832;BME280;52593;42.648;23.332;2023-07-28T03:29:48;94646.53;;;12.56;74.30
65832;BME280;52593;42.648;23.332;2023-07-28T03:32:13;94654.41;;;12.57;74.17
65832;BME280;52593;42.648;23.332;2023-07-28T03:34:38;94657.59;;;12.46;73.68
65832;BME280;52593;42.648;23.332;2023-07-28T03:37:04;94658.22;;;12.48;74.12
65832;BME280;52593;42.648;23.332;2023-07-28T03:39:29;94659.69;;;12.51;74.20
65832;BME280;52593;42.648;23.332;2023-07-28T03:41:56;94658.28;;;12.55;73.63
65832;BME280;52593;42.648;23.332;2023-07-28T03:44:22;94658.72;;;12.58;72.74
65832;BME280;52593;42.648;23.332;2023-07-28T03:46:47;94659.78;;;12.57;72.82
65832;BME280;52593;42.648;23.332;2023-07-28T03:49:13;94666.34;;;12.55;72.81
65832;BME280;52593;42.648;23.332;2023-07-28T03:51:38;94659.31;;;12.54;73.27
65832;BME280;52593;42.648;23.332;2023-07-28T03:54:03;94660.97;;;12.55;73.65
65832;BME280;52593;42.648;23.332;2023-07-28T03:56:29;94662.47;;;12.57;73.85
65832;BME280;52593;42.648;23.332;2023-07-28T03:58:54;94653.44;;;12.65;73.05
65832;BME280;52593;42.648;23.332;2023-07-28T04:01:20;94651.41;;;12.74;72.36
65832;BME280;52593;42.648;23.332;2023-07-28T04:03:47;94659.53;;;12.80;72.13
65832;BME280;52593;42.648;23.332;2023-07-28T04:06:12;94659.47;;;12.74;72.06
65832;BME280;52593;42.648;23.332;2023-07-28T04:08:38;94668.19;;;12.76;72.48
65832;BME280;52593;42.648;23.332;2023-07-28T04:11:04;94670.13;;;12.89;71.93
65832;BME280;52593;42.648;23.332;2023-07-28T04:13:29;94678.44;;;12.94;71.69
65832;BME280;52593;42.648;23.332;2023-07-28T04:15:55;94667.69;;;13.22;70.02
65832;BME280;52593;42.648;23.332;2023-07-28T04:18:20;94656.06;;;13.43;70.11
65832;BME280;52593;42.648;23.332;2023-07-28T04:20:46;94667.06;;;13.20;71.01
65832;BME280;52593;42.648;23.332;2023-07-28T04:23:12;94668.66;;;13.14;71.88
65832;BME280;52593;42.648;23.332;2023-07-28T04:25:37;94667.84;;;13.42;68.89
65832;BME280;52593;42.648;23.332;2023-07-28T04:28:03;94670.44;;;13.64;68.38
65832;BME280;52593;42.648;23.332;2023-07-28T04:30:28;94663.63;;;13.68;67.22
65832;BME280;52593;42.648;23.332;2023-07-28T04:32:53;94668.72;;;13.56;69.23
65832;BME280;52593;42.648;23.332;2023-07-28T04:35:19;94665.63;;;13.52;68.91
65832;BME280;52593;42.648;23.332;2023-07-28T04:37:44;94674.22;;;13.41;69.66
65832;BME280;52593;42.648;23.332;2023-07-28T04:40:10;94674.88;;;13.43;68.78
65832;BME280;52593;42.648;23.332;2023-07-28T04:42:35;94674.38;;;13.33;68.76
65832;BME280;52593;42.648;23.332;2023-07-28T04:45:02;94674.59;;;13.66;67.56
65832;BME280;52593;42.648;23.332;2023-07-28T04:47:27;94672.31;;;13.70;68.06
65832;BME280;52593;42.648;23.332;2023-07-28T04:49:53;94664.47;;;13.75;68.04
65832;BME280;52593;42.648;23.332;2023-07-28T04:52:18;94672.09;;;13.65;67.65
65832;BME280;52593;42.648;23.332;2023-07-28T04:54:43;94665.22;;;13.55;68.16
65832;BME280;52593;42.648;23.332;2023-07-28T04:57:09;94666.47;;;13.60;69.36
65832;BME280;52593;42.648;23.332;2023-07-28T04:59:34;94658.94;;;13.83;68.19
65832;BME280;52593;42.648;23.332;2023-07-28T05:02:00;94662.09;;;13.94;68.83
65832;BME280;52593;42.648;23.332;2023-07-28T05:04:25;94666.06;;;14.11;66.23
65832;BME280;52593;42.648;23.332;2023-07-28T05:06:50;94661.13;;;14.21;66.71
65832;BME280;52593;42.648;23.332;2023-07-28T05:09:16;94666.31;;;14.30;65.47
65832;BME280;52593;42.648;23.332;2023-07-28T05:11:41;94670.00;;;14.15;66.67
65832;BME280;52593;42.648;23.332;2023-07-28T05:14:07;94665.69;;;14.34;65.29
65832;BME280;52593;42.648;23.332;2023-07-28T05:16:34;94666.38;;;14.56;64.18
65832;BME280;52593;42.648;23.332;2023-07-28T05:18:59;94668.47;;;14.61;63.84
65832;BME280;52593;42.648;23.332;2023-07-28T05:21:25;94661.16;;;14.48;65.32
65832;BME280;52593;42.648;23.332;2023-07-28T05:23:51;94665.78;;;14.61;64.78
65832;BME280;52593;42.648;23.332;2023-07-28T05:26:16;94662.28;;;14.67;64.28
65832;BME280;52593;42.648;23.332;2023-07-28T05:28:42;94674.03;;;14.59;65.36
65832;BME280;52593;42.648;23.332;2023-07-28T05:31:07;94666.34;;;14.50;66.28
65832;BME280;52593;42.648;23.332;2023-07-28T05:33:33;94662.69;;;14.64;64.63
65832;BME280;52593;42.648;23.332;2023-07-28T05:36:05;94664.34;;;14.78;64.91
65832;BME280;52593;42.648;23.332;2023-07-28T05:38:30;94662.88;;;15.09;65.59
65832;BME280;52593;42.648;23.332;2023-07-28T05:40:57;94661.22;;;15.08;63.72
65832;BME280;52593;42.648;23.332;2023-07-28T05:43:22;94664.50;;;15.44;61.04
65832;BME280;52593;42.648;23.332;2023-07-28T05:45:48;94657.84;;;15.40;62.24
65832;BME280;52593;42.648;23.332;2023-07-28T05:48:13;94657.28;;;15.24;61.65
65832;BME280;52593;42.648;23.332;2023-07-28T05:50:38;94658.50;;;15.28;61.23
65832;BME280;52593;42.648;23.332;2023-07-28T05:53:04;94657.66;;;15.28;61.10
65832;BME280;52593;42.648;23.332;2023-07-28T05:55:29;94655.13;;;15.46;61.26
65832;BME280;52593;42.648;23.332;2023-07-28T05:57:55;94652.03;;;15.43;61.89
65832;BME280;52593;42.648;23.332;2023-07-28T06:00:20;94646.66;;;15.43;61.42
65832;BME280;52593;42.648;23.332;2023-07-28T06:02:47;94644.16;;;15.41;61.32
65832;BME280;52593;42.648;23.332;2023-07-28T06:05:12;94639.09;;;15.78;61.13
65832;BME280;52593;42.648;23.332;2023-07-28T06:07:38;94638.94;;;15.60;61.83
65832;BME280;52593;42.648;23.332;2023-07-28T06:10:04;94637.63;;;15.82;61.00
65832;BME280;52593;42.648;23.332;2023-07-28T06:12:29;94642.19;;;15.89;61.64
65832;BME280;52593;42.648;23.332;2023-07-28T06:14:54;94635.28;;;15.99;59.15
65832;BME280;52593;42.648;23.332;2023-07-28T06:17:20;94636.75;;;15.95;59.26
65832;BME280;52593;42.648;23.332;2023-07-28T06:19:46;94634.88;;;15.96;58.38
65832;BME280;52593;42.648;23.332;2023-07-28T06:22:11;94635.28;;;15.99;59.21
65832;BME280;52593;42.648;23.332;2023-07-28T06:24:37;94643.53;;;16.04;58.64
65832;BME280;52593;42.648;23.332;2023-07-28T06:27:02;94632.75;;;16.04;58.12
65832;BME280;52593;42.648;23.332;2023-07-28T06:29:33;94627.50;;;16.16;57.95
65832;BME280;52593;42.648;23.332;2023-07-28T06:31:58;94626.69;;;16.16;57.49
65832;BME280;52593;42.648;23.332;2023-07-28T06:34:24;94621.28;;;16.16;57.23
65832;BME280;52593;42.648;23.332;2023-07-28T06:36:49;94628.19;;;16.44;54.49
65832;BME280;52593;42.648;23.332;2023-07-28T06:39:15;94628.34;;;16.49;56.71
65832;BME280;52593;42.648;23.332;2023-07-28T06:41:40;94630.00;;;16.50;56.14
65832;BME280;52593;42.648;23.332;2023-07-28T06:44:05;94622.50;;;16.52;55.15
65832;BME280;52593;42.648;23.332;2023-07-28T06:46:32;94626.81;;;16.59;55.54
65832;BME280;52593;42.648;23.332;2023-07-28T06:48:57;94624.34;;;16.83;56.81
65832;BME280;52593;42.648;23.332;2023-07-28T06:51:22;94631.19;;;16.86;55.90
65832;BME280;52593;42.648;23.332;2023-07-28T06:53:48;94631.03;;;17.06;54.63
65832;BME280;52593;42.648;23.332;2023-07-28T06:56:13;94631.13;;;17.18;54.61
65832;BME280;52593;42.648;23.332;2023-07-28T06:58:39;94638.22;;;17.19;57.02
65832;BME280;52593;42.648;23.332;2023-07-28T07:01:04;94629.38;;;17.48;54.16
65832;BME280;52593;42.648;23.332;2023-07-28T07:03:29;94624.72;;;17.37;52.99
65832;BME280;52593;42.648;23.332;2023-07-28T07:05:55;94624.84;;;17.24;53.66
65832;BME280;52593;42.648;23.332;2023-07-28T07:08:20;94633.19;;;17.22;55.62
65832;BME280;52593;42.648;23.332;2023-07-28T07:10:49;94633.63;;;17.38;55.42
65832;BME280;52593;42.648;23.332;2023-07-28T07:13:18;94631.91;;;17.25;54.36
65832;BME280;52593;42.648;23.332;2023-07-28T07:15:44;94632.34;;;17.22;56.63
65832;BME280;52593;42.648;23.332;2023-07-28T07:18:09;94638.13;;;17.25;55.05
65832;BME280;52593;42.648;23.332;2023-07-28T07:20:36;94621.00;;;17.32;54.27
65832;BME280;52593;42.648;23.332;2023-07-28T07:23:01;94629.56;;;17.28;54.90
65832;BME280;52593;42.648;23.332;2023-07-28T07:25:27;94627.72;;;17.29;55.17
65832;BME280;52593;42.648;23.332;2023-07-28T07:27:52;94629.34;;;17.30;54.35
65832;BME280;52593;42.648;23.332;2023-07-28T07:30:17;94629.53;;;17.35;55.36
65832;BME280;52593;42.648;23.332;2023-07-28T07:32:43;94635.41;;;17.51;56.01
65832;BME280;52593;42.648;23.332;2023-07-28T07:35:09;94627.97;;;17.64;53.90
65832;BME280;52593;42.648;23.332;2023-07-28T07:37:34;94635.31;;;17.76;53.66
65832;BME280;52593;42.648;23.332;2023-07-28T07:40:00;94628.09;;;17.88;53.52
65832;BME280;52593;42.648;23.332;2023-07-28T07:42:27;94634.06;;;17.97;52.07
65832;BME280;52593;42.648;23.332;2023-07-28T07:44:52;94636.19;;;17.95;51.43
65832;BME280;52593;42.648;23.332;2023-07-28T07:47:18;94629.91;;;17.94;52.40
65832;BME280;52593;42.648;23.332;2023-07-28T07:49:43;94637.34;;;17.99;51.80
65832;BME280;52593;42.648;23.332;2023-07-28T07:52:09;94637.66;;;18.09;51.47
65832;BME280;52593;42.648;23.332;2023-07-28T07:54:35;94641.25;;;18.22;51.41
65832;BME280;52593;42.648;23.332;2023-07-28T07:57:01;94632.72;;;18.36;51.18
65832;BME280;52593;42.648;23.332;2023-07-28T07:59:27;94640.28;;;18.46;50.79
65832;BME280;52593;42.648;23.332;2023-07-28T08:01:56;94638.25;;;18.42;51.24
65832;BME280;52593;42.648;23.332;2023-07-28T08:04:21;94644.50;;;18.42;52.35
65832;BME280;52593;42.648;23.332;2023-07-28T08:06:47;94638.19;;;18.60;50.88
65832;BME280;52593;42.648;23.332;2023-07-28T08:09:13;94637.06;;;18.80;50.76
65832;BME280;52593;42.648;23.332;2023-07-28T08:11:39;94628.28;;;19.08;50.16
65832;BME280;52593;42.648;23.332;2023-07-28T08:14:05;94633.13;;;19.18;51.37
65832;BME280;52593;42.648;23.332;2023-07-28T08:16:30;94624.88;;;19.24;51.13
65832;BME280;52593;42.648;23.332;2023-07-28T08:18:55;94633.25;;;19.47;51.30
65832;BME280;52593;42.648;23.332;2023-07-28T08:21:21;94634.19;;;19.52;47.99
65832;BME280;52593;42.648;23.332;2023-07-28T08:23:48;94631.22;;;19.54;49.32
65832;BME280;52593;42.648;23.332;2023-07-28T08:26:13;94625.31;;;19.69;47.61
65832;BME280;52593;42.648;23.332;2023-07-28T08:28:39;94618.25;;;19.80;49.49
65832;BME280;52593;42.648;23.332;2023-07-28T08:31:04;94624.28;;;19.82;48.82
65832;BME280;52593;42.648;23.332;2023-07-28T08:33:29;94624.13;;;20.00;47.23
65832;BME280;52593;42.648;23.332;2023-07-28T08:35:55;94618.88;;;20.10;47.07
65832;BME280;52593;42.648;23.332;2023-07-28T08:38:20;94621.09;;;20.13;46.51
65832;BME280;52593;42.648;23.332;2023-07-28T08:40:46;94620.53;;;20.11;46.25
65832;BME280;52593;42.648;23.332;2023-07-28T08:43:11;94621.09;;;20.13;46.88
65832;BME280;52593;42.648;23.332;2023-07-28T08:45:37;94617.63;;;20.30;48.92
65832;BME280;52593;42.648;23.332;2023-07-28T08:48:03;94608.81;;;20.40;47.83
65832;BME280;52593;42.648;23.332;2023-07-28T08:50:29;94612.66;;;20.67;45.56
65832;BME280;52593;42.648;23.332;2023-07-28T08:52:56;94607.22;;;20.84;45.23
65832;BME280;52593;42.648;23.332;2023-07-28T08:55:21;94611.50;;;20.97;46.64
65832;BME280;52593;42.648;23.332;2023-07-28T08:57:48;94613.59;;;21.07;47.93
65832;BME280;52593;42.648;23.332;2023-07-28T09:00:14;94606.91;;;21.15;46.45
65832;BME280;52593;42.648;23.332;2023-07-28T09:02:41;94606.88;;;20.98;46.29
65832;BME280;52593;42.648;23.332;2023-07-28T09:05:16;94596.75;;;21.10;46.28
65832;BME280;52593;42.648;23.332;2023-07-28T09:07:42;94593.69;;;21.24;44.89
65832;BME280;52593;42.648;23.332;2023-07-28T09:10:08;94587.59;;;21.16;44.99
65832;BME280;52593;42.648;23.332;2023-07-28T09:12:34;94584.13;;;21.21;43.88
65832;BME280;52593;42.648;23.332;2023-07-28T09:14:59;94579.78;;;21.42;43.34
65832;BME280;52593;42.648;23.332;2023-07-28T09:17:25;94572.91;;;21.73;43.15
65832;BME280;52593;42.648;23.332;2023-07-28T09:19:55;94566.38;;;21.97;41.77
65832;BME280;52593;42.648;23.332;2023-07-28T09:22:21;94561.63;;;22.09;41.47
65832;BME280;52593;42.648;23.332;2023-07-28T09:24:47;94561.81;;;22.02;41.62
65832;BME280;52593;42.648;23.332;2023-07-28T09:27:25;94556.63;;;22.28;42.81
65832;BME280;52593;42.648;23.332;2023-07-28T09:29:52;94553.34;;;22.48;40.31
65832;BME280;52593;42.648;23.332;2023-07-28T09:32:30;94553.13;;;22.55;40.45
65832;BME280;52593;42.648;23.332;2023-07-28T09:35:10;94545.81;;;22.60;39.77
65832;BME280;52593;42.648;23.332;2023-07-28T09:37:43;94546.84;;;22.54;39.59
65832;BME280;52593;42.648;23.332;2023-07-28T09:40:14;94539.53;;;22.60;42.77
65832;BME280;52593;42.648;23.332;2023-07-28T09:42:40;94538.59;;;22.82;43.37
65832;BME280;52593;42.648;23.332;2023-07-28T09:45:08;94540.81;;;22.85;41.25
65832;BME280;52593;42.648;23.332;2023-07-28T09:47:35;94531.38;;;22.97;42.40
65832;BME280;52593;42.648;23.332;2023-07-28T09:50:06;94526.47;;;23.00;40.41
65832;BME280;52593;42.648;23.332;2023-07-28T09:52:34;94528.84;;;22.91;39.60
65832;BME280;52593;42.648;23.332;2023-07-28T09:55:05;94513.97;;;23.46;38.98
65832;BME280;52593;42.648;23.332;2023-07-28T09:57:37;94519.56;;;23.72;38.15
65832;BME280;52593;42.648;23.332;2023-07-28T10:00:04;94517.47;;;23.90;37.84
65832;BME280;52593;42.648;23.332;2023-07-28T10:02:30;94521.31;;;24.04;37.14
65832;BME280;52593;42.648;23.332;2023-07-28T10:04:57;94506.88;;;24.14;39.06
65832;BME280;52593;42.648;23.332;2023-07-28T10:07:24;94515.88;;;24.14;38.44
65832;BME280;52593;42.648;23.332;2023-07-28T10:09:50;94513.22;;;24.40;36.67
65832;BME280;52593;42.648;23.332;2023-07-28T10:12:23;94505.06;;;24.71;35.80
65832;BME280;52593;42.648;23.332;2023-07-28T10:15:00;94515.72;;;25.03;36.02
65832;BME280;52593;42.648;23.332;2023-07-28T10:17:31;94508.88;;;24.96;33.34
65832;BME280;52593;42.648;23.332;2023-07-28T10:19:57;94506.13;;;24.96;34.01
65832;BME280;52593;42.648;23.332;2023-07-28T10:22:26;94506.97;;;24.86;34.13
65832;BME280;52593;42.648;23.332;2023-07-28T10:24:53;94497.94;;;24.80;33.95
65832;BME280;52593;42.648;23.332;2023-07-28T10:27:29;94502.56;;;25.00;36.00
65832;BME280;52593;42.648;23.332;2023-07-28T10:29:57;94503.66;;;25.15;38.49
65832;BME280;52593;42.648;23.332;2023-07-28T10:32:28;94491.31;;;25.33;36.37
65832;BME280;52593;42.648;23.332;2023-07-28T10:35:07;94495.13;;;25.42;36.85
65832;BME280;52593;42.648;23.332;2023-07-28T10:37:33;94490.13;;;25.70;37.01
65832;BME280;52593;42.648;23.332;2023-07-28T10:40:30;94483.50;;;25.81;33.35
65832;BME280;52593;42.648;23.332;2023-07-28T10:42:56;94480.81;;;25.66;33.57
65832;BME280;52593;42.648;23.332;2023-07-28T10:45:23;94474.78;;;25.69;33.61
65832;BME280;52593;42.648;23.332;2023-07-28T10:47:51;94473.84;;;25.99;33.59
65832;BME280;52593;42.648;23.332;2023-07-28T10:50:18;94469.41;;;26.03;32.98
65832;BME280;52593;42.648;23.332;2023-07-28T10:52:45;94462.50;;;26.11;32.77
65832;BME280;52593;42.648;23.332;2023-07-28T10:55:24;94478.22;;;26.00;34.45
65832;BME280;52593;42.648;23.332;2023-07-28T10:57:50;94468.97;;;26.30;34.51
65832;BME280;52593;42.648;23.332;2023-07-28T11:00:19;94459.88;;;26.40;32.12
65832;BME280;52593;42.648;23.332;2023-07-28T11:02:49;94463.72;;;26.39;32.12
65832;BME280;52593;42.648;23.332;2023-07-28T11:05:33;94462.00;;;26.48;31.43
65832;BME280;52593;42.648;23.332;2023-07-28T11:08:00;94450.63;;;26.26;31.55
65832;BME280;52593;42.648;23.332;2023-07-28T11:10:31;94453.25;;;26.07;32.26
65832;BME280;52593;42.648;23.332;2023-07-28T11:12:58;94448.38;;;25.88;32.13
65832;BME280;52593;42.648;23.332;2023-07-28T11:15:24;94452.53;;;26.30;33.18
65832;BME280;52593;42.648;23.332;2023-07-28T11:17:51;94437.31;;;26.48;31.16
65832;BME280;52593;42.648;23.332;2023-07-28T11:20:20;94425.97;;;26.60;31.05
65832;BME280;52593;42.648;23.332;2023-07-28T11:22:52;94436.13;;;26.60;31.01
65832;BME280;52593;42.648;23.332;2023-07-28T11:25:17;94426.88;;;26.85;31.66
65832;BME280;52593;42.648;23.332;2023-07-28T11:27:44;94416.34;;;27.21;29.89
65832;BME280;52593;42.648;23.332;2023-07-28T11:30:11;94426.16;;;27.03;30.83
65832;BME280;52593;42.648;23.332;2023-07-28T11:32:37;94428.84;;;26.79;30.89
65832;BME280;52593;42.648;23.332;2023-07-28T11:35:07;94416.00;;;26.40;29.34
65832;BME280;52593;42.648;23.332;2023-07-28T11:37:35;94415.59;;;26.52;29.03
65832;BME280;52593;42.648;23.332;2023-07-28T11:40:01;94414.25;;;26.84;29.88
65832;BME280;52593;42.648;23.332;2023-07-28T11:42:32;94415.19;;;26.74;30.23
65832;BME280;52593;42.648;23.332;2023-07-28T11:44:59;94403.16;;;27.48;31.08
65832;BME280;52593;42.648;23.332;2023-07-28T11:47:24;94406.69;;;27.91;29.86
65832;BME280;52593;42.648;23.332;2023-07-28T11:49:50;94408.25;;;27.79;29.52
65832;BME280;52593;42.648;23.332;2023-07-28T11:52:16;94405.66;;;27.87;28.62
65832;BME280;52593;42.648;23.332;2023-07-28T11:54:43;94402.78;;;27.54;28.16
65832;BME280;52593;42.648;23.332;2023-07-28T11:57:09;94398.44;;;27.91;28.47
65832;BME280;52593;42.648;23.332;2023-07-28T11:59:35;94405.28;;;27.75;28.14
65832;BME280;52593;42.648;23.332;2023-07-28T12:02:03;94407.56;;;27.68;27.75
65832;BME280;52593;42.648;23.332;2023-07-28T12:04:37;94406.09;;;27.75;27.54
65832;BME280;52593;42.648;23.332;2023-07-28T12:12:15;94393.00;;;28.10;27.12
65832;BME280;52593;42.648;23.332;2023-07-28T12:14:41;94385.53;;;27.92;27.82
65832;BME280;52593;42.648;23.332;2023-07-28T12:17:13;94389.91;;;28.50;28.68
65832;BME280;52593;42.648;23.332;2023-07-28T12:19:54;94393.09;;;28.90;27.73
65832;BME280;52593;42.648;23.332;2023-07-28T12:22:20;94393.22;;;28.66;26.65
65832;BME280;52593;42.648;23.332;2023-07-28T12:24:45;94389.88;;;28.69;27.20
65832;BME280;52593;42.648;23.332;2023-07-28T12:27:10;94381.94;;;28.81;26.41
65832;BME280;52593;42.648;23.332;2023-07-28T12:29:38;94377.91;;;28.60;26.98
65832;BME280;52593;42.648;23.332;2023-07-28T12:32:04;94376.41;;;28.68;27.46
65832;BME280;52593;42.648;23.332;2023-07-28T12:34:29;94383.59;;;28.31;27.87
65832;BME280;52593;42.648;23.332;2023-07-28T12:36:55;94382.94;;;28.20;28.94
65832;BME280;52593;42.648;23.332;2023-07-28T12:39:20;94390.31;;;28.76;28.91
65832;BME280;52593;42.648;23.332;2023-07-28T12:41:45;94376.00;;;29.21;29.42
65832;BME280;52593;42.648;23.332;2023-07-28T12:44:11;94359.97;;;29.37;28.63
65832;BME280;52593;42.648;23.332;2023-07-28T12:46:36;94354.84;;;29.58;27.34
65832;BME280;52593;42.648;23.332;2023-07-28T12:49:03;94362.50;;;29.61;27.59
65832;BME280;52593;42.648;23.332;2023-07-28T12:51:29;94363.34;;;29.20;27.70
65832;BME280;52593;42.648;23.332;2023-07-28T12:53:55;94363.56;;;28.63;28.61
65832;BME280;52593;42.648;23.332;2023-07-28T12:56:20;94368.13;;;29.14;28.12
65832;BME280;52593;42.648;23.332;2023-07-28T12:58:46;94364.13;;;29.07;27.78